SR-431 Mt Rose Dugway
 (NVDOT) 8889 ft         Display wind rose
     Date    Time     Temp MxTp MnTp DewP  RH Spd Dir Gst
2021 Sep 19 07:52 pm    40   51   37   28  64   7  67  14
2021 Sep 19 07:42 pm    41   51   37   26  56   6  50  14
2021 Sep 19 07:31 pm    42   51   37   27  55   6  63  11
2021 Sep 19 07:21 pm    42   51   37   27  54   6  70  10
2021 Sep 19 07:11 pm    42   51   37   26  53   5  71  10
2021 Sep 19 07:01 pm    43   51   37   26  52   5  65  12
2021 Sep 19 06:51 pm    43   51   37   26  51   4  73  11
2021 Sep 19 06:41 pm    44   51   37   25  48   5  84  10
2021 Sep 19 06:30 pm    44   51   37   24  45   6  95  11
2021 Sep 19 06:20 pm    45   51   37   24  43   4  77  11
2021 Sep 19 06:10 pm    46   51   37   23  40   6  55  11
2021 Sep 19 06:00 pm    47   51   37   24  39   5  19   8
2021 Sep 19 05:50 pm    48   51   37   24  38   4  62   8
2021 Sep 19 05:39 pm    49   51   37   24  37   3  55   7
2021 Sep 19 05:29 pm    49   51   37   23  36   3   8   7
2021 Sep 19 05:19 pm    49   51   37   23  36   3  12   9
2021 Sep 19 05:09 pm    49   51   37   23  36   4  70  12
2021 Sep 19 04:59 pm    48   51   37   23  37   5  75  12
2021 Sep 19 04:49 pm    48   51   37   23  37   5 102  10
2021 Sep 19 04:39 pm    50   51   37   25  38   5  84  10
2021 Sep 19 04:29 pm    49   51   37   24  37   4  51  10
2021 Sep 19 04:19 pm    49   51   37   25  38   4   5  10
2021 Sep 19 04:09 pm    48   51   37   24  38   6  18  13
2021 Sep 19 03:59 pm    50   51   37   25  38   6  37  13
2021 Sep 19 03:49 pm    51   51   37   26  38   4 267  14
2021 Sep 19 03:39 pm    50   50   37   25  37   6 271  14
2021 Sep 19 03:29 pm    49   51   37   25  39   5 141  12
2021 Sep 19 03:19 pm    49   52   37   24  38   3  87  13
2021 Sep 19 03:09 pm    48   52   37   24  39   7 359  14
2021 Sep 19 02:58 pm    49   52   37   22  35   6 290  14
2021 Sep 19 02:48 pm    49   54   37   27  41   3   0  13
2021 Sep 19 02:38 pm    47   54   37   24  40   7 322  13
2021 Sep 19 02:28 pm    48   54   37   26  42   7  77  19
2021 Sep 19 02:18 pm    47   54   37   26  44  13 338  21
2021 Sep 19 02:08 pm    47   54   37   23  39   9 296  17
2021 Sep 19 01:58 pm    45   54   37   29  53   8 287  18
2021 Sep 19 01:48 pm    45   54   37   30  55   9 305  18
2021 Sep 19 01:38 pm    45   54   37   29  55   5 287  15
2021 Sep 19 01:28 pm    45   54   37   30  55   5 290  15
2021 Sep 19 01:18 pm    46   54   37   31  55   4   9  15
2021 Sep 19 01:08 pm    46   54   37   32  57   4 214  14
2021 Sep 19 12:58 pm    45   54   37   31  59   6 276  15
2021 Sep 19 12:48 pm    46   54   37   33  60  11 284  18
2021 Sep 19 12:38 pm    43   54   37   32  64   6 274  20
2021 Sep 19 12:27 pm    43   54   37   31  62   9 287  20
2021 Sep 19 12:17 pm    45   54   37   32  60   8 286  25
2021 Sep 19 12:07 pm    42   54   37   29  60   7 271  21
2021 Sep 19 11:57 am    42   54   37   31  64  11 296  21
2021 Sep 19 11:47 am    44   54   37   34  66   8 302  22
2021 Sep 19 11:37 am    42   54   37   30  63  12 283  22
2021 Sep 19 11:27 am    42   54   37   31  64   9 304  17
2021 Sep 19 11:17 am    44   54   37   32  64  15 295  29
2021 Sep 19 11:07 am    43   54   37   29  59  13 311  29
2021 Sep 19 10:57 am    42   54   37   30  63   8 300  24
2021 Sep 19 10:47 am    43   54   37   31  62   5 245  24
2021 Sep 19 10:37 am    42   54   37   30  62   7 296  25
2021 Sep 19 10:27 am    41   54   37   29  61   7 292  25
2021 Sep 19 10:17 am    43   54   37   29  57   5 310  22
2021 Sep 19 10:07 am    42   54   37   27  57   5 260  24
2021 Sep 19 09:57 am    41   54   37   30  64  11 289  24
2021 Sep 19 09:46 am    40   54   37   30  65  15 282  38
2021 Sep 19 09:36 am    40   54   37   31  71  13 281  30
2021 Sep 19 09:26 am    39   54   37   32  76  14 288  24
2021 Sep 19 09:16 am    39   54   37   33  80  15 291  26
2021 Sep 19 09:06 am    38   54   37   33  81  14 283  30
2021 Sep 19 08:56 am    38   54   37   32  81  15 288  30
2021 Sep 19 08:46 am    38   54   37   32  78  15 289  30
2021 Sep 19 08:34 am    38   54   37   32  81  14 298  35
2021 Sep 19 08:24 am    38   54   37   32  81  19 287  36
2021 Sep 19 08:14 am    37   54   37   32  82  20 283  37
2021 Sep 19 08:04 am    37   54   37   32  80  22 284  39
2021 Sep 19 07:54 am    37   54   37   32  82  22 284  40
2021 Sep 19 07:44 am    37   54   37   32  82  21 282  40
2021 Sep 19 07:34 am    37   54   37   33  84  22 281  37
2021 Sep 19 07:24 am    37   54   37   33  85  18 283  35
2021 Sep 19 07:14 am    37   54   37   34  86  15 288  35
2021 Sep 19 07:04 am    37   54   37   35  91  12 285  34
2021 Sep 19 06:54 am    37   54   37   34  89  15 289  34
2021 Sep 19 06:43 am    37   54   37   34  88  14 288  35
2021 Sep 19 06:33 am    37   54   37   35  92  17 293  43
2021 Sep 19 06:23 am    37   54   37   35  95  16 289  34
2021 Sep 19 06:13 am    37   54   37   37  98  15 287  40
2021 Sep 19 06:03 am    37   54   37   37  98  23 288  40
2021 Sep 19 05:53 am    38   54   38   37  98  15 284  39
2021 Sep 19 05:43 am    38   54   38   38  98  15 287  32
2021 Sep 19 05:33 am    38   54   38   38  98  14 297  34
2021 Sep 19 05:23 am    39   54   38   38  98  17 295  39
2021 Sep 19 05:13 am    39   54   38   38  98  17 291  43
2021 Sep 19 05:03 am    38   54   38   38  98  17 272  43
2021 Sep 19 04:53 am    41   54   39   40  98  14 300  31
2021 Sep 19 04:43 am    39   54   39   38  98  13 297  33
2021 Sep 19 04:33 am    39   54   39   38  98  12 300  32
2021 Sep 19 04:23 am    39   54   39   38  97  11 299  30
2021 Sep 19 04:13 am    39   54   39   38  97  13 293  33
2021 Sep 19 04:02 am    41   54   40   40  97   5 294  29
2021 Sep 19 03:52 am    40   54   40   39  97   9 321  27
2021 Sep 19 03:42 am    40   54   40   39  97  15 294  32
2021 Sep 19 03:32 am    41   54   40   40  97  13 263  43
2021 Sep 19 03:22 am    40   54   40   39  96  14 297  43
2021 Sep 19 03:12 am    40   54   40   39  96  11 306  27
2021 Sep 19 03:02 am    42   54   40   41  95   9 270  30
2021 Sep 19 02:52 am    40   54   40   39  93  13 295  32
2021 Sep 19 02:42 am    40   54   40   38  91  12 298  32
2021 Sep 19 02:32 am    42   54   40   40  90  18 293  32
2021 Sep 19 02:22 am    41   54   40   38  91  13 294  34
2021 Sep 19 02:12 am    41   54   40   39  93  13 299  30
2021 Sep 19 02:02 am    42   54   40   40  93   4 265  38
2021 Sep 19 01:52 am    41   54   40   39  93  11 299  38
2021 Sep 19 01:42 am    41   54   40   39  93  13 291  36
2021 Sep 19 01:31 am    40   54   40   39  93  11 296  24
2021 Sep 19 01:21 am    40   54   40   38  92  11 297  26
2021 Sep 19 01:11 am    40   54   40   38  92  11 297  26
2021 Sep 19 01:01 am    42   54   40   39  91  12 292  28
2021 Sep 19 12:51 am    40   54   40   38  90  15 296  30
2021 Sep 19 12:41 am    40   54   40   37  88  13 290  30
2021 Sep 19 12:37 am    40   54   40   37  88  14 289  33
2021 Sep 19 12:27 am    40   54   40   36  84  18 286  33
2021 Sep 19 12:17 am    42   54   40   36  81  22 276  32
2021 Sep 19 12:07 am    40   54   40   33  76  17 280  33
2021 Sep 18 11:57 pm    40   54   40   31  70  17 279  37
2021 Sep 18 11:47 pm    40   54   40   29  64  17 283  32
2021 Sep 18 11:37 pm    41   54   41   28  61  20 282  35
2021 Sep 18 11:26 pm    41   54   41   27  57  18 283  34
2021 Sep 18 11:16 pm    41   54   41   25  54  18 286  36
2021 Sep 18 11:06 pm    41   54   41   25  52  18 284  37
2021 Sep 18 10:56 pm    41   54   41   25  53  17 281  33
2021 Sep 18 10:46 pm    41   54   41   27  57  19 281  34
2021 Sep 18 10:36 pm    41   54   41   27  57  18 278  34
2021 Sep 18 10:26 pm    41   54   41   26  56  17 280  33
2021 Sep 18 10:14 pm    41   54   41   26  55  17 286  36
2021 Sep 18 10:03 pm    41   54   41   24  50  15 286  38
2021 Sep 18 10:00 pm    41   54   41   24  51  18 281  38
2021 Sep 18 09:50 pm    41   54   41   22  46  17 279  34
2021 Sep 18 09:40 pm    41   54   41   22  47  19 282  34
2021 Sep 18 09:30 pm    41   54   41   21  46  17 285  33
2021 Sep 18 09:20 pm    41   54   41   21  45  19 285  38
2021 Sep 18 09:10 pm    41   54   41   22  46  19 285  38
2021 Sep 18 09:00 pm    41   54   41   22  46  16 286  31
2021 Sep 18 08:50 pm    43   54   42   25  49  17 293  34
2021 Sep 18 08:40 pm    42   54   42   25  51  15 291  34
2021 Sep 18 08:30 pm    42   54   42   25  51  17 290  39
2021 Sep 18 08:20 pm    42   54   42   25  51  15 287  35
2021 Sep 18 08:10 pm    42   54   42   25  50  17 290  38
2021 Sep 18 08:00 pm    42   54   42   25  51  17 289  35
2021 Sep 18 07:49 pm    42   54   42   24  48  17 292  37
2021 Sep 18 07:39 pm    43   54   43   23  45  16 292  39
2021 Sep 18 07:29 pm    43   54   43   24  47  15 291  37
2021 Sep 18 07:19 pm    43   54   43   25  48  14 290  35
2021 Sep 18 07:09 pm    43   54   43   25  48  16 293  35
2021 Sep 18 06:59 pm    44   54   44   26  50  13 290  31
2021 Sep 18 06:49 pm    44   54   44   26  49  15 288  38
2021 Sep 18 06:39 pm    44   54   44   26  49  11 299  38
2021 Sep 18 06:29 pm    45   54   45   27  49  15 289  37
2021 Sep 18 06:19 pm    45   55   45   26  48  14 298  33
2021 Sep 18 06:09 pm    46   55   46   26  45  12 295  34
2021 Sep 18 05:59 pm    46   57   46   25  44  15 297  34
2021 Sep 18 05:49 pm    47   57   46   25  43  14 293  26
2021 Sep 18 05:29 pm    47   58   46   25  42  13 300  35
2021 Sep 18 05:18 pm    48   59   46   26  43  13 293  33
2021 Sep 18 05:08 pm    48   59   46   26  41   9 315  34
2021 Sep 18 04:58 pm    48   60   46   26  41  17 293  34
2021 Sep 18 04:48 pm    48   60   46   26  41  15 300  40
2021 Sep 18 04:38 pm    48   60   46   27  43  16 295  40
2021 Sep 18 04:28 pm    49   61   46   27  42  11 301  29
2021 Sep 18 04:18 pm    50   61   46   26  40   8 330  28
2021 Sep 18 04:08 pm    50   61   46   27  40   9 311  28
2021 Sep 18 03:58 pm    50   61   46   28  42   9 312  31
2021 Sep 18 03:48 pm    50   61   46   28  41  13 301  30
2021 Sep 18 03:38 pm    51   61   46   28  40   8 313  28
2021 Sep 18 03:28 pm    52   61   46   27  38   8 314  28
2021 Sep 18 03:18 pm    51   62   46   27  39   7 339  22
2021 Sep 18 03:08 pm    51   62   46   25  36   7 336  30
2021 Sep 18 02:58 pm    51   62   46   25  35   9 301  30
2021 Sep 18 02:48 pm    54   62   46   27  35   7 325  19
2021 Sep 18 02:38 pm    52   63   46   24  33   8 328  22
2021 Sep 18 02:27 pm    51   63   46   24  34   8 321  22
2021 Sep 18 02:17 pm    54   63   46   25  33   9 328  20
2021 Sep 18 02:07 pm    52   63   46   25  35   7 356  21
2021 Sep 18 01:57 pm    51   63   46   25  35   8 335  25
2021 Sep 18 01:47 pm    53   63   46   28  37  10 345  21
2021 Sep 18 01:37 pm    52   63   46   27  38   7   1  26
2021 Sep 18 01:27 pm    54   63   46   29  38  11 296  26
2021 Sep 18 01:17 pm    54   63   46   30  40   5 359  34
2021 Sep 18 01:07 pm    52   63   46   27  38  11 312  34
2021 Sep 18 12:57 pm    51   63   46   26  37  12 296  34
2021 Sep 18 12:47 pm    54   63   46   27  36   4 358  37
2021 Sep 18 12:37 pm    52   63   46   25  34  10 309  29
2021 Sep 18 12:27 pm    52   63   46   23  32   8 346  27
2021 Sep 18 12:17 pm    52   63   46   23  32   7 356  30
2021 Sep 18 12:07 pm    52   63   46   24  33   7 321  23
2021 Sep 18 11:57 am    51   63   46   23  33   8 335  26
2021 Sep 18 11:46 am    51   63   46   24  34   9 343  28
2021 Sep 18 11:36 am    51   63   46   24  34   8 313  30
2021 Sep 18 11:26 am    51   63   46   24  35  11 304  30
2021 Sep 18 11:16 am    50   63   46   24  35  11 300  32
2021 Sep 18 11:06 am    51   63   46   23  34   9 325  37
2021 Sep 18 10:56 am    49   63   46   22  35  19 296  37
2021 Sep 18 10:46 am    50   63   46   20  31  12 303  36
2021 Sep 18 10:33 am    49   63   46   19  30  10 316  37
2021 Sep 18 10:23 am    48   63   46   18  30  15 297  42
2021 Sep 18 10:13 am    49   63   46   19  30  17 294  42
2021 Sep 18 10:03 am    48   63   46   19  31  22 296  39
2021 Sep 18 09:53 am    48   63   46   19  32  20 293  39
2021 Sep 18 09:43 am    47   63   46   19  33  18 296  37
2021 Sep 18 09:33 am    49   63   46   20  31  20 313  36
2021 Sep 18 09:22 am    47   63   46   18  32  17 294  36
2021 Sep 18 09:12 am    47   63   46   18  31  15 296  37
2021 Sep 18 09:02 am    49   63   46   19  31  10 254  29
2021 Sep 18 08:52 am    46   63   46   16  29  13 300  30
2021 Sep 18 08:42 am    47   63   46   15  28   7 299  33
2021 Sep 18 08:32 am    48   63   46   16  28  17 287  36
2021 Sep 18 08:22 am    46   63   46   13  26  18 288  43
2021 Sep 18 08:12 am    47   63   46   11  23  17 293  43
2021 Sep 18 08:02 am    48   63   46   10  21  21 294  37
2021 Sep 18 07:52 am    47   63   46    9  21  17 296  37
2021 Sep 18 07:42 am    47   63   46    8  20  17 297  37
2021 Sep 18 07:32 am    48   63   46   10  21  17 288  41
2021 Sep 18 07:22 am    46   63   46    8  21  18 293  41
2021 Sep 18 07:12 am    46   63   46    8  21  17 294  33
2021 Sep 18 07:02 am    46   63   46    9  22  20 292  39
2021 Sep 18 06:52 am    46   63   46    8  21  20 287  39
2021 Sep 18 06:41 am    46   63   46   11  24  19 286  34
2021 Sep 18 06:31 am    46   63   46   12  25  18 292  32
2021 Sep 18 06:11 am    46   63   46   12  25  18 286  39
2021 Sep 18 06:01 am    47   63   46   12  24  18 292  31
2021 Sep 18 05:51 am    47   63   46   12  24  15 293  34
2021 Sep 18 05:43 am    46   63   46   14  27  14 296  34
2021 Sep 18 05:33 am    46   63   46   15  28   9 295  33
2021 Sep 18 05:23 am    46   63   46   14  27  17 294  33
2021 Sep 18 05:13 am    46   63   46   16  30  18 288  35
2021 Sep 18 05:03 am    48   63   46   18  30  17 291  30
2021 Sep 18 04:52 am    46   63   46   16  30  17 285  33
2021 Sep 18 04:42 am    47   63   47   16  29  16 287  33
2021 Sep 18 04:32 am    48   63   47   17  29  12 287  30
2021 Sep 18 04:22 am    47   63   47   15  28  11 296  31
2021 Sep 18 04:12 am    47   63   47   15  28  14 293  31
2021 Sep 18 04:02 am    49   63   47   17  28  16 297  32
2021 Sep 18 03:52 am    47   63   47   16  29  15 291  32
2021 Sep 18 03:42 am    47   63   47   16  29  15 293  29
2021 Sep 18 03:32 am    49   63   47   18  29  15 290  31
2021 Sep 18 03:22 am    47   63   47   17  30  16 294  28
2021 Sep 18 03:12 am    47   63   47   17  30  13 289  24
2021 Sep 18 03:02 am    49   63   48   19  30  12 274  25
2021 Sep 18 02:52 am    48   63   48   17  29  13 288  26
2021 Sep 18 02:42 am    48   63   48   17  29  12 287  26
2021 Sep 18 02:32 am    48   63   48   17  29  12 288  26
2021 Sep 18 02:22 am    48   63   48   18  29  13 285  26
2021 Sep 18 02:11 am    49   63   48   19  30  13 282  22
2021 Sep 18 02:01 am    48   63   48   18  30  12 282  23
2021 Sep 18 01:51 am    48   63   48   18  30  12 285  26
2021 Sep 18 01:41 am    49   63   49   18  29  14 283  26
2021 Sep 18 01:31 am    49   63   49   16  27  13 284  23
2021 Sep 18 01:21 am    49   63   49   16  27  11 278  25
2021 Sep 18 01:15 am    49   63   49   17  28  13 278  25
2021 Sep 18 01:05 am    49   63   49   18  28  11 280  25
2021 Sep 18 12:54 am    50   63   49   18  28  13 281  25
2021 Sep 18 12:44 am    50   63   49   19  29  11 285  23
2021 Sep 18 12:34 am    50   63   49   19  29   8 283  19
2021 Sep 18 12:24 am    50   63   49   20  30  11 286  19
2021 Sep 18 12:14 am    50   63   49   19  30   9 284  17
2021 Sep 18 12:04 am    49   63   49   21  32   9 285  19
2021 Sep 17 11:54 pm    50   63   49   20  31   9 289  19
2021 Sep 17 11:44 pm    50   63   49   22  33   8 290  17
2021 Sep 17 11:34 pm    49   63   49   22  34   8 296  18
2021 Sep 17 11:14 pm    50   63   50   22  33   9 290  18
2021 Sep 17 11:04 pm    50   63   50   21  32   9 293  19
2021 Sep 17 10:54 pm    50   63   50   21  32   9 288  19
2021 Sep 17 10:44 pm    50   63   50   23  34   7 288  18
2021 Sep 17 10:34 pm    50   63   50   24  36  10 293  21
2021 Sep 17 10:24 pm    50   63   50   24  36   9 291  21
2021 Sep 17 10:14 pm    51   63   50   25  36   5 292  18
2021 Sep 17 10:03 pm    51   63   50   25  37   6 295  19
2021 Sep 17 09:57 pm    50   63   50   25  37   5 292  19
2021 Sep 17 09:47 pm    52   63   51   27  37   1  63  15
2021 Sep 17 09:37 pm    51   63   51   25  36   5 289  18
2021 Sep 17 09:27 pm    51   63   51   25  36   7 293  16
2021 Sep 17 09:17 pm    52   63   51   26  35   6 294  18
2021 Sep 17 09:07 pm    51   63   51   24  35   7 300  17
2021 Sep 17 08:57 pm    51   63   51   24  35   5 299  15
2021 Sep 17 08:47 pm    53   63   51   26  35   5 297  14
2021 Sep 17 08:37 pm    51   63   51   25  35   6 298  14
2021 Sep 17 08:27 pm    51   63   51   25  35   4 307  10
2021 Sep 17 08:17 pm    53   63   51   25  34   7 303  16
2021 Sep 17 08:07 pm    52   63   51   23  32   6 292  19
2021 Sep 17 07:57 pm    52   63   51   24  33   8 287  19
2021 Sep 17 07:47 pm    52   63   51   25  35   9 291  20
2021 Sep 17 07:37 pm    52   63   51   25  34   7 285  14
2021 Sep 17 07:26 pm    52   63   51   26  35   7 292  14
2021 Sep 17 07:16 pm    53   63   51   25  33   7 287  17
2021 Sep 17 07:06 pm    54   63   51   25  33   8 280  18